sensor_id;sensor_type;location;lat;lon;timestamp;P1;durP1;ratioP1;P2;durP2;ratioP2
10293;SDS011;5192;50.328;7.610;2023-04-25T00:00:18;17.67;;;12.83;;
10293;SDS011;5192;50.328;7.610;2023-04-25T00:02:44;17.07;;;13.00;;
10293;SDS011;5192;50.328;7.610;2023-04-25T00:05:12;17.20;;;12.43;;
10293;SDS011;5192;50.328;7.610;2023-04-25T00:07:41;19.03;;;13.27;;
10293;SDS011;5192;50.328;7.610;2023-04-25T00:10:08;18.97;;;13.20;;
10293;SDS011;5192;50.328;7.610;2023-04-25T00:12:38;16.43;;;12.57;;
10293;SDS011;5192;50.328;7.610;2023-04-25T00:15:06;20.60;;;13.53;;
10293;SDS011;5192;50.328;7.610;2023-04-25T00:17:35;17.47;;;13.83;;
10293;SDS011;5192;50.328;7.610;2023-04-25T00:20:04;17.93;;;12.77;;
10293;SDS011;5192;50.328;7.610;2023-04-25T00:22:36;16.87;;;12.17;;
10293;SDS011;5192;50.328;7.610;2023-04-25T00:25:05;16.93;;;13.50;;
10293;SDS011;5192;50.328;7.610;2023-04-25T00:27:33;17.70;;;12.83;;
10293;SDS011;5192;50.328;7.610;2023-04-25T00:30:01;16.23;;;12.93;;
10293;SDS011;5192;50.328;7.610;2023-04-25T00:32:27;15.77;;;12.37;;
10293;SDS011;5192;50.328;7.610;2023-04-25T00:34:55;17.07;;;13.30;;
10293;SDS011;5192;50.328;7.610;2023-04-25T00:37:25;16.97;;;12.90;;
10293;SDS011;5192;50.328;7.610;2023-04-25T00:39:52;15.60;;;12.80;;
10293;SDS011;5192;50.328;7.610;2023-04-25T00:42:22;15.60;;;12.70;;
10293;SDS011;5192;50.328;7.610;2023-04-25T00:44:51;19.20;;;13.20;;
10293;SDS011;5192;50.328;7.610;2023-04-25T00:47:19;16.40;;;12.37;;
10293;SDS011;5192;50.328;7.610;2023-04-25T00:49:46;18.43;;;11.10;;
10293;SDS011;5192;50.328;7.610;2023-04-25T00:52:13;16.00;;;12.10;;
10293;SDS011;5192;50.328;7.610;2023-04-25T00:54:41;14.90;;;10.93;;
10293;SDS011;5192;50.328;7.610;2023-04-25T00:57:06;14.67;;;11.30;;
10293;SDS011;5192;50.328;7.610;2023-04-25T00:59:33;16.40;;;11.77;;
10293;SDS011;5192;50.328;7.610;2023-04-25T01:02:04;20.07;;;11.30;;
10293;SDS011;5192;50.328;7.610;2023-04-25T01:04:30;13.87;;;10.73;;
10293;SDS011;5192;50.328;7.610;2023-04-25T01:07:02;17.33;;;10.07;;
10293;SDS011;5192;50.328;7.610;2023-04-25T01:09:29;15.40;;;9.87;;
10293;SDS011;5192;50.328;7.610;2023-04-25T01:12:00;13.07;;;9.87;;
10293;SDS011;5192;50.328;7.610;2023-04-25T01:14:27;13.40;;;10.20;;
10293;SDS011;5192;50.328;7.610;2023-04-25T01:16:53;17.07;;;9.87;;
10293;SDS011;5192;50.328;7.610;2023-04-25T01:19:21;12.80;;;9.50;;
10293;SDS011;5192;50.328;7.610;2023-04-25T01:21:48;12.97;;;9.07;;
10293;SDS011;5192;50.328;7.610;2023-04-25T01:24:16;14.10;;;9.13;;
10293;SDS011;5192;50.328;7.610;2023-04-25T01:26:44;14.60;;;9.57;;
10293;SDS011;5192;50.328;7.610;2023-04-25T01:29:19;12.17;;;9.23;;
10293;SDS011;5192;50.328;7.610;2023-04-25T01:31:45;15.27;;;9.03;;
10293;SDS011;5192;50.328;7.610;2023-04-25T01:34:12;13.37;;;8.77;;
10293;SDS011;5192;50.328;7.610;2023-04-25T01:36:39;12.17;;;9.37;;
10293;SDS011;5192;50.328;7.610;2023-04-25T01:39:07;14.40;;;9.50;;
10293;SDS011;5192;50.328;7.610;2023-04-25T01:41:34;15.03;;;9.57;;
10293;SDS011;5192;50.328;7.610;2023-04-25T01:43:59;17.27;;;9.60;;
10293;SDS011;5192;50.328;7.610;2023-04-25T01:46:27;17.30;;;11.40;;
10293;SDS011;5192;50.328;7.610;2023-04-25T01:48:56;13.37;;;9.93;;
10293;SDS011;5192;50.328;7.610;2023-04-25T01:51:23;15.30;;;9.47;;
10293;SDS011;5192;50.328;7.610;2023-04-25T01:53:51;16.00;;;9.40;;
10293;SDS011;5192;50.328;7.610;2023-04-25T01:56:23;16.47;;;10.30;;
10293;SDS011;5192;50.328;7.610;2023-04-25T01:58:50;14.70;;;10.03;;
10293;SDS011;5192;50.328;7.610;2023-04-25T02:01:17;13.23;;;10.03;;
10293;SDS011;5192;50.328;7.610;2023-04-25T02:03:45;21.90;;;10.03;;
10293;SDS011;5192;50.328;7.610;2023-04-25T02:06:10;15.37;;;9.77;;
10293;SDS011;5192;50.328;7.610;2023-04-25T02:08:38;13.20;;;9.83;;
10293;SDS011;5192;50.328;7.610;2023-04-25T02:11:05;16.37;;;9.93;;
10293;SDS011;5192;50.328;7.610;2023-04-25T02:13:32;19.03;;;10.20;;
10293;SDS011;5192;50.328;7.610;2023-04-25T02:15:58;17.03;;;10.10;;
10293;SDS011;5192;50.328;7.610;2023-04-25T02:18:26;16.53;;;10.47;;
10293;SDS011;5192;50.328;7.610;2023-04-25T02:20:53;14.23;;;10.60;;
10293;SDS011;5192;50.328;7.610;2023-04-25T02:23:20;19.30;;;11.27;;
10293;SDS011;5192;50.328;7.610;2023-04-25T02:25:46;17.20;;;11.43;;
10293;SDS011;5192;50.328;7.610;2023-04-25T02:28:14;21.40;;;11.07;;
10293;SDS011;5192;50.328;7.610;2023-04-25T02:30:42;16.67;;;10.83;;
10293;SDS011;5192;50.328;7.610;2023-04-25T02:33:09;17.27;;;10.60;;
10293;SDS011;5192;50.328;7.610;2023-04-25T02:35:35;14.70;;;10.40;;
10293;SDS011;5192;50.328;7.610;2023-04-25T02:38:02;17.67;;;11.03;;
10293;SDS011;5192;50.328;7.610;2023-04-25T02:40:27;16.97;;;9.93;;
10293;SDS011;5192;50.328;7.610;2023-04-25T02:42:57;20.07;;;11.07;;
10293;SDS011;5192;50.328;7.610;2023-04-25T02:45:23;17.03;;;10.47;;
10293;SDS011;5192;50.328;7.610;2023-04-25T02:47:51;21.57;;;10.40;;
10293;SDS011;5192;50.328;7.610;2023-04-25T02:50:17;15.83;;;10.57;;
10293;SDS011;5192;50.328;7.610;2023-04-25T02:52:45;17.30;;;10.10;;
10293;SDS011;5192;50.328;7.610;2023-04-25T02:55:14;17.00;;;10.70;;
10293;SDS011;5192;50.328;7.610;2023-04-25T02:57:42;14.07;;;9.73;;
10293;SDS011;5192;50.328;7.610;2023-04-25T03:00:08;15.60;;;9.97;;
10293;SDS011;5192;50.328;7.610;2023-04-25T03:02:34;17.80;;;10.17;;
10293;SDS011;5192;50.328;7.610;2023-04-25T03:05:07;16.20;;;10.20;;
10293;SDS011;5192;50.328;7.610;2023-04-25T03:07:33;13.60;;;9.43;;
10293;SDS011;5192;50.328;7.610;2023-04-25T03:10:04;14.13;;;9.87;;
10293;SDS011;5192;50.328;7.610;2023-04-25T03:12:32;14.50;;;9.57;;
10293;SDS011;5192;50.328;7.610;2023-04-25T03:14:58;19.93;;;10.57;;
10293;SDS011;5192;50.328;7.610;2023-04-25T03:17:24;19.43;;;10.10;;
10293;SDS011;5192;50.328;7.610;2023-04-25T03:19:52;16.43;;;9.53;;
10293;SDS011;5192;50.328;7.610;2023-04-25T03:22:18;18.07;;;10.47;;
10293;SDS011;5192;50.328;7.610;2023-04-25T03:24:45;18.00;;;10.57;;
10293;SDS011;5192;50.328;7.610;2023-04-25T03:27:13;15.23;;;10.53;;
10293;SDS011;5192;50.328;7.610;2023-04-25T03:29:42;16.20;;;10.40;;
10293;SDS011;5192;50.328;7.610;2023-04-25T03:32:09;15.57;;;10.13;;
10293;SDS011;5192;50.328;7.610;2023-04-25T03:34:37;17.30;;;10.93;;
10293;SDS011;5192;50.328;7.610;2023-04-25T03:37:06;20.43;;;10.70;;
10293;SDS011;5192;50.328;7.610;2023-04-25T03:39:34;17.10;;;10.17;;
10293;SDS011;5192;50.328;7.610;2023-04-25T03:42:00;17.13;;;9.97;;
10293;SDS011;5192;50.328;7.610;2023-04-25T03:44:29;17.43;;;9.33;;
10293;SDS011;5192;50.328;7.610;2023-04-25T03:46:57;18.30;;;9.53;;
10293;SDS011;5192;50.328;7.610;2023-04-25T03:49:24;17.57;;;9.40;;
10293;SDS011;5192;50.328;7.610;2023-04-25T03:51:53;18.27;;;9.07;;
10293;SDS011;5192;50.328;7.610;2023-04-25T03:54:21;15.37;;;8.43;;
10293;SDS011;5192;50.328;7.610;2023-04-25T03:56:48;11.73;;;8.33;;
10293;SDS011;5192;50.328;7.610;2023-04-25T03:59:16;19.10;;;8.67;;
10293;SDS011;5192;50.328;7.610;2023-04-25T04:01:44;20.60;;;8.50;;
10293;SDS011;5192;50.328;7.610;2023-04-25T04:04:13;17.97;;;8.63;;
10293;SDS011;5192;50.328;7.610;2023-04-25T04:06:39;18.40;;;9.13;;
10293;SDS011;5192;50.328;7.610;2023-04-25T04:09:06;16.43;;;8.33;;
10293;SDS011;5192;50.328;7.610;2023-04-25T04:11:37;16.80;;;9.43;;
10293;SDS011;5192;50.328;7.610;2023-04-25T04:14:04;18.93;;;10.40;;
10293;SDS011;5192;50.328;7.610;2023-04-25T04:16:32;20.37;;;11.23;;
10293;SDS011;5192;50.328;7.610;2023-04-25T04:18:59;21.20;;;11.27;;
10293;SDS011;5192;50.328;7.610;2023-04-25T04:21:26;18.13;;;10.97;;
10293;SDS011;5192;50.328;7.610;2023-04-25T04:23:53;19.77;;;10.93;;
10293;SDS011;5192;50.328;7.610;2023-04-25T04:26:24;19.80;;;11.10;;
10293;SDS011;5192;50.328;7.610;2023-04-25T04:28:52;19.53;;;10.87;;
10293;SDS011;5192;50.328;7.610;2023-04-25T04:31:20;16.73;;;9.93;;
10293;SDS011;5192;50.328;7.610;2023-04-25T04:33:47;16.33;;;10.13;;
10293;SDS011;5192;50.328;7.610;2023-04-25T04:36:16;19.60;;;11.10;;
10293;SDS011;5192;50.328;7.610;2023-04-25T04:38:46;21.00;;;9.83;;
10293;SDS011;5192;50.328;7.610;2023-04-25T04:41:14;15.87;;;10.10;;
10293;SDS011;5192;50.328;7.610;2023-04-25T04:43:41;18.90;;;10.90;;
10293;SDS011;5192;50.328;7.610;2023-04-25T04:46:08;16.97;;;9.80;;
10293;SDS011;5192;50.328;7.610;2023-04-25T04:48:36;16.13;;;10.53;;
10293;SDS011;5192;50.328;7.610;2023-04-25T04:51:05;22.20;;;10.13;;
10293;SDS011;5192;50.328;7.610;2023-04-25T04:53:32;17.50;;;9.07;;
10293;SDS011;5192;50.328;7.610;2023-04-25T04:56:00;16.00;;;9.97;;
10293;SDS011;5192;50.328;7.610;2023-04-25T04:58:27;14.33;;;8.90;;
10293;SDS011;5192;50.328;7.610;2023-04-25T05:00:55;16.13;;;9.33;;
10293;SDS011;5192;50.328;7.610;2023-04-25T05:03:23;16.27;;;9.50;;
10293;SDS011;5192;50.328;7.610;2023-04-25T05:05:50;19.00;;;9.23;;
10293;SDS011;5192;50.328;7.610;2023-04-25T05:08:17;22.33;;;10.03;;
10293;SDS011;5192;50.328;7.610;2023-04-25T05:10:43;16.57;;;9.83;;
10293;SDS011;5192;50.328;7.610;2023-04-25T05:13:12;16.63;;;9.47;;
10293;SDS011;5192;50.328;7.610;2023-04-25T05:15:37;19.17;;;10.00;;
10293;SDS011;5192;50.328;7.610;2023-04-25T05:18:04;19.87;;;9.57;;
10293;SDS011;5192;50.328;7.610;2023-04-25T05:20:29;17.53;;;8.90;;
10293;SDS011;5192;50.328;7.610;2023-04-25T05:22:58;19.77;;;9.20;;
10293;SDS011;5192;50.328;7.610;2023-04-25T05:25:25;17.17;;;8.30;;
10293;SDS011;5192;50.328;7.610;2023-04-25T05:27:53;15.47;;;8.43;;
10293;SDS011;5192;50.328;7.610;2023-04-25T05:30:21;20.13;;;8.93;;
10293;SDS011;5192;50.328;7.610;2023-04-25T05:32:49;17.77;;;9.03;;
10293;SDS011;5192;50.328;7.610;2023-04-25T05:35:17;24.03;;;9.57;;
10293;SDS011;5192;50.328;7.610;2023-04-25T05:37:43;15.23;;;8.23;;
10293;SDS011;5192;50.328;7.610;2023-04-25T05:40:11;17.50;;;7.33;;
10293;SDS011;5192;50.328;7.610;2023-04-25T05:42:38;19.13;;;8.90;;
10293;SDS011;5192;50.328;7.610;2023-04-25T05:45:05;15.53;;;8.43;;
10293;SDS011;5192;50.328;7.610;2023-04-25T05:47:33;18.67;;;8.37;;
10293;SDS011;5192;50.328;7.610;2023-04-25T05:49:58;17.80;;;8.30;;
10293;SDS011;5192;50.328;7.610;2023-04-25T05:52:25;16.37;;;8.80;;
10293;SDS011;5192;50.328;7.610;2023-04-25T05:54:54;11.63;;;8.40;;
10293;SDS011;5192;50.328;7.610;2023-04-25T05:57:25;16.40;;;7.57;;
10293;SDS011;5192;50.328;7.610;2023-04-25T05:59:51;20.07;;;8.43;;
10293;SDS011;5192;50.328;7.610;2023-04-25T06:02:20;17.17;;;7.77;;
10293;SDS011;5192;50.328;7.610;2023-04-25T06:04:46;13.37;;;7.53;;
10293;SDS011;5192;50.328;7.610;2023-04-25T06:07:15;15.13;;;7.83;;
10293;SDS011;5192;50.328;7.610;2023-04-25T06:09:43;18.00;;;8.10;;
10293;SDS011;5192;50.328;7.610;2023-04-25T06:12:08;16.47;;;7.40;;
10293;SDS011;5192;50.328;7.610;2023-04-25T06:14:38;13.20;;;7.03;;
10293;SDS011;5192;50.328;7.610;2023-04-25T06:17:04;13.23;;;7.50;;
10293;SDS011;5192;50.328;7.610;2023-04-25T06:19:33;13.43;;;7.00;;
10293;SDS011;5192;50.328;7.610;2023-04-25T06:22:01;18.50;;;7.93;;
10293;SDS011;5192;50.328;7.610;2023-04-25T06:24:28;13.53;;;7.40;;
10293;SDS011;5192;50.328;7.610;2023-04-25T06:26:55;15.13;;;8.10;;
10293;SDS011;5192;50.328;7.610;2023-04-25T06:29:20;14.57;;;6.70;;
10293;SDS011;5192;50.328;7.610;2023-04-25T06:31:48;16.47;;;8.27;;
10293;SDS011;5192;50.328;7.610;2023-04-25T06:34:15;14.17;;;7.67;;
10293;SDS011;5192;50.328;7.610;2023-04-25T06:36:42;13.70;;;6.97;;
10293;SDS011;5192;50.328;7.610;2023-04-25T06:39:10;17.17;;;7.73;;
10293;SDS011;5192;50.328;7.610;2023-04-25T06:41:37;15.07;;;7.40;;
10293;SDS011;5192;50.328;7.610;2023-04-25T06:44:05;15.33;;;7.33;;
10293;SDS011;5192;50.328;7.610;2023-04-25T06:46:33;14.33;;;6.70;;
10293;SDS011;5192;50.328;7.610;2023-04-25T06:49:02;14.40;;;7.03;;
10293;SDS011;5192;50.328;7.610;2023-04-25T06:51:29;10.33;;;6.87;;
10293;SDS011;5192;50.328;7.610;2023-04-25T06:53:56;14.90;;;7.50;;
10293;SDS011;5192;50.328;7.610;2023-04-25T06:56:24;17.00;;;7.00;;
10293;SDS011;5192;50.328;7.610;2023-04-25T06:58:51;13.37;;;7.43;;
10293;SDS011;5192;50.328;7.610;2023-04-25T07:01:16;15.40;;;7.73;;
10293;SDS011;5192;50.328;7.610;2023-04-25T07:03:43;12.83;;;7.20;;
10293;SDS011;5192;50.328;7.610;2023-04-25T07:06:10;15.73;;;8.03;;
10293;SDS011;5192;50.328;7.610;2023-04-25T07:08:37;14.47;;;8.00;;
10293;SDS011;5192;50.328;7.610;2023-04-25T07:11:03;14.30;;;7.70;;
10293;SDS011;5192;50.328;7.610;2023-04-25T07:13:31;13.27;;;8.07;;
10293;SDS011;5192;50.328;7.610;2023-04-25T07:15:59;12.23;;;7.73;;
10293;SDS011;5192;50.328;7.610;2023-04-25T07:18:26;14.37;;;7.43;;
10293;SDS011;5192;50.328;7.610;2023-04-25T07:20:52;12.47;;;8.20;;
10293;SDS011;5192;50.328;7.610;2023-04-25T07:23:21;13.83;;;7.80;;
10293;SDS011;5192;50.328;7.610;2023-04-25T07:25:47;13.13;;;7.70;;
10293;SDS011;5192;50.328;7.610;2023-04-25T07:28:16;12.53;;;7.97;;
10293;SDS011;5192;50.328;7.610;2023-04-25T07:30:41;15.53;;;8.40;;
10293;SDS011;5192;50.328;7.610;2023-04-25T07:33:08;13.83;;;8.27;;
10293;SDS011;5192;50.328;7.610;2023-04-25T07:35:36;18.80;;;7.70;;
10293;SDS011;5192;50.328;7.610;2023-04-25T07:38:03;14.43;;;8.43;;
10293;SDS011;5192;50.328;7.610;2023-04-25T07:40:29;13.97;;;7.57;;
10293;SDS011;5192;50.328;7.610;2023-04-25T07:42:57;14.03;;;8.40;;
10293;SDS011;5192;50.328;7.610;2023-04-25T07:45:29;13.67;;;7.87;;
10293;SDS011;5192;50.328;7.610;2023-04-25T07:48:00;13.63;;;7.80;;
10293;SDS011;5192;50.328;7.610;2023-04-25T07:50:26;11.47;;;7.90;;
10293;SDS011;5192;50.328;7.610;2023-04-25T07:52:54;15.13;;;9.07;;
10293;SDS011;5192;50.328;7.610;2023-04-25T07:55:20;12.77;;;8.00;;
10293;SDS011;5192;50.328;7.610;2023-04-25T07:57:46;11.73;;;7.70;;
10293;SDS011;5192;50.328;7.610;2023-04-25T08:00:13;11.53;;;7.77;;
10293;SDS011;5192;50.328;7.610;2023-04-25T08:02:39;12.77;;;7.80;;
10293;SDS011;5192;50.328;7.610;2023-04-25T08:05:05;13.30;;;7.33;;
10293;SDS011;5192;50.328;7.610;2023-04-25T08:07:35;15.07;;;8.03;;
10293;SDS011;5192;50.328;7.610;2023-04-25T08:10:03;12.33;;;7.60;;
10293;SDS011;5192;50.328;7.610;2023-04-25T08:12:32;11.97;;;7.47;;
10293;SDS011;5192;50.328;7.610;2023-04-25T08:15:00;16.67;;;8.23;;
10293;SDS011;5192;50.328;7.610;2023-04-25T08:17:27;11.17;;;7.67;;
10293;SDS011;5192;50.328;7.610;2023-04-25T08:19:58;13.07;;;7.87;;
10293;SDS011;5192;50.328;7.610;2023-04-25T08:22:23;13.47;;;7.63;;
10293;SDS011;5192;50.328;7.610;2023-04-25T08:24:51;9.87;;;7.50;;
10293;SDS011;5192;50.328;7.610;2023-04-25T08:27:21;13.30;;;7.87;;
10293;SDS011;5192;50.328;7.610;2023-04-25T08:29:49;13.23;;;8.20;;
10293;SDS011;5192;50.328;7.610;2023-04-25T08:32:17;15.03;;;7.23;;
10293;SDS011;5192;50.328;7.610;2023-04-25T08:34:43;12.20;;;6.77;;
10293;SDS011;5192;50.328;7.610;2023-04-25T08:37:10;11.13;;;5.97;;
10293;SDS011;5192;50.328;7.610;2023-04-25T08:39:36;10.50;;;6.30;;
10293;SDS011;5192;50.328;7.610;2023-04-25T08:42:04;11.00;;;6.33;;
10293;SDS011;5192;50.328;7.610;2023-04-25T08:44:34;9.37;;;6.13;;
10293;SDS011;5192;50.328;7.610;2023-04-25T08:47:01;12.07;;;6.80;;
10293;SDS011;5192;50.328;7.610;2023-04-25T08:49:31;13.03;;;5.90;;
10293;SDS011;5192;50.328;7.610;2023-04-25T08:52:03;11.93;;;5.70;;
10293;SDS011;5192;50.328;7.610;2023-04-25T08:54:33;13.40;;;6.67;;
10293;SDS011;5192;50.328;7.610;2023-04-25T08:57:02;14.13;;;6.50;;
10293;SDS011;5192;50.328;7.610;2023-04-25T08:59:30;8.83;;;5.23;;
10293;SDS011;5192;50.328;7.610;2023-04-25T09:01:57;9.47;;;4.40;;
10293;SDS011;5192;50.328;7.610;2023-04-25T09:04:22;8.17;;;4.53;;
10293;SDS011;5192;50.328;7.610;2023-04-25T09:06:50;9.07;;;4.43;;
10293;SDS011;5192;50.328;7.610;2023-04-25T09:09:18;11.80;;;4.97;;
10293;SDS011;5192;50.328;7.610;2023-04-25T09:11:45;10.73;;;5.07;;
10293;SDS011;5192;50.328;7.610;2023-04-25T09:19:44;11.70;;;5.30;;
10293;SDS011;5192;50.328;7.610;2023-04-25T09:22:11;14.50;;;5.83;;
10293;SDS011;5192;50.328;7.610;2023-04-25T09:27:23;11.60;;;5.73;;
10293;SDS011;5192;50.328;7.610;2023-04-25T09:29:59;12.30;;;5.83;;
10293;SDS011;5192;50.328;7.610;2023-04-25T09:32:27;9.20;;;5.43;;
10293;SDS011;5192;50.328;7.610;2023-04-25T09:34:54;12.80;;;5.87;;
10293;SDS011;5192;50.328;7.610;2023-04-25T09:37:32;12.33;;;5.17;;
10293;SDS011;5192;50.328;7.610;2023-04-25T09:40:04;8.53;;;4.80;;
10293;SDS011;5192;50.328;7.610;2023-04-25T09:42:32;9.53;;;5.03;;
10293;SDS011;5192;50.328;7.610;2023-04-25T09:45:02;10.23;;;5.07;;
10293;SDS011;5192;50.328;7.610;2023-04-25T09:47:30;13.53;;;5.17;;
10293;SDS011;5192;50.328;7.610;2023-04-25T09:49:57;9.83;;;4.43;;
10293;SDS011;5192;50.328;7.610;2023-04-25T09:52:24;10.90;;;4.57;;
10293;SDS011;5192;50.328;7.610;2023-04-25T09:54:51;7.87;;;3.93;;
10293;SDS011;5192;50.328;7.610;2023-04-25T09:57:21;11.57;;;4.00;;
10293;SDS011;5192;50.328;7.610;2023-04-25T09:59:50;12.13;;;4.43;;
10293;SDS011;5192;50.328;7.610;2023-04-25T10:02:21;11.23;;;4.63;;
10293;SDS011;5192;50.328;7.610;2023-04-25T10:04:54;10.27;;;4.10;;
10293;SDS011;5192;50.328;7.610;2023-04-25T10:07:26;7.47;;;3.87;;
10293;SDS011;5192;50.328;7.610;2023-04-25T10:10:02;10.07;;;4.60;;
10293;SDS011;5192;50.328;7.610;2023-04-25T10:12:33;10.30;;;4.47;;
10293;SDS011;5192;50.328;7.610;2023-04-25T10:15:02;7.93;;;4.40;;
10293;SDS011;5192;50.328;7.610;2023-04-25T10:17:35;6.30;;;4.13;;
10293;SDS011;5192;50.328;7.610;2023-04-25T10:20:02;8.43;;;3.97;;
10293;SDS011;5192;50.328;7.610;2023-04-25T10:22:43;8.63;;;5.50;;
10293;SDS011;5192;50.328;7.610;2023-04-25T10:25:14;9.43;;;4.17;;
10293;SDS011;5192;50.328;7.610;2023-04-25T10:27:44;8.77;;;3.80;;
10293;SDS011;5192;50.328;7.610;2023-04-25T10:30:11;10.57;;;4.47;;
10293;SDS011;5192;50.328;7.610;2023-04-25T10:32:48;10.13;;;4.00;;
10293;SDS011;5192;50.328;7.610;2023-04-25T10:35:24;9.27;;;3.37;;
10293;SDS011;5192;50.328;7.610;2023-04-25T10:38:20;11.10;;;3.90;;
10293;SDS011;5192;50.328;7.610;2023-04-25T10:43:39;10.00;;;3.57;;
10293;SDS011;5192;50.328;7.610;2023-04-25T10:49:01;5.60;;;3.07;;
10293;SDS011;5192;50.328;7.610;2023-04-25T10:51:29;8.40;;;2.60;;
10293;SDS011;5192;50.328;7.610;2023-04-25T10:54:07;11.53;;;3.37;;
10293;SDS011;5192;50.328;7.610;2023-04-25T10:56:38;7.47;;;3.13;;
10293;SDS011;5192;50.328;7.610;2023-04-25T10:59:09;6.87;;;2.90;;
10293;SDS011;5192;50.328;7.610;2023-04-25T11:01:51;8.60;;;3.03;;
10293;SDS011;5192;50.328;7.610;2023-04-25T11:04:37;6.50;;;2.27;;
10293;SDS011;5192;50.328;7.610;2023-04-25T11:09:55;6.80;;;2.57;;
10293;SDS011;5192;50.328;7.610;2023-04-25T11:12:21;7.53;;;2.93;;
10293;SDS011;5192;50.328;7.610;2023-04-25T11:14:48;4.57;;;2.60;;
10293;SDS011;5192;50.328;7.610;2023-04-25T11:17:15;6.33;;;3.00;;
10293;SDS011;5192;50.328;7.610;2023-04-25T11:19:42;5.87;;;2.43;;
10293;SDS011;5192;50.328;7.610;2023-04-25T11:22:12;7.90;;;3.17;;
10293;SDS011;5192;50.328;7.610;2023-04-25T11:24:39;7.80;;;2.77;;
10293;SDS011;5192;50.328;7.610;2023-04-25T11:27:06;5.10;;;2.80;;
10293;SDS011;5192;50.328;7.610;2023-04-25T11:29:32;5.70;;;3.03;;
10293;SDS011;5192;50.328;7.610;2023-04-25T11:32:00;7.90;;;3.53;;
10293;SDS011;5192;50.328;7.610;2023-04-25T11:34:33;6.77;;;3.83;;
10293;SDS011;5192;50.328;7.610;2023-04-25T11:37:01;9.00;;;4.90;;
10293;SDS011;5192;50.328;7.610;2023-04-25T11:39:31;6.00;;;3.50;;
10293;SDS011;5192;50.328;7.610;2023-04-25T11:41:58;9.00;;;4.07;;
10293;SDS011;5192;50.328;7.610;2023-04-25T11:44:28;7.47;;;3.53;;
10293;SDS011;5192;50.328;7.610;2023-04-25T11:46:56;5.03;;;2.90;;
10293;SDS011;5192;50.328;7.610;2023-04-25T11:49:24;8.63;;;3.50;;
10293;SDS011;5192;50.328;7.610;2023-04-25T11:51:57;8.27;;;3.40;;
10293;SDS011;5192;50.328;7.610;2023-04-25T11:54:24;6.63;;;3.40;;
10293;SDS011;5192;50.328;7.610;2023-04-25T11:56:52;12.00;;;3.47;;
10293;SDS011;5192;50.328;7.610;2023-04-25T11:59:22;7.97;;;3.47;;
10293;SDS011;5192;50.328;7.610;2023-04-25T12:01:50;7.90;;;3.20;;
10293;SDS011;5192;50.328;7.610;2023-04-25T12:04:21;8.27;;;3.47;;
10293;SDS011;5192;50.328;7.610;2023-04-25T12:07:09;8.50;;;3.20;;
10293;SDS011;5192;50.328;7.610;2023-04-25T12:09:39;7.73;;;3.40;;
10293;SDS011;5192;50.328;7.610;2023-04-25T12:12:09;5.30;;;3.00;;
10293;SDS011;5192;50.328;7.610;2023-04-25T12:14:37;3.73;;;2.43;;
10293;SDS011;5192;50.328;7.610;2023-04-25T12:17:04;3.13;;;2.73;;
10293;SDS011;5192;50.328;7.610;2023-04-25T12:19:34;5.80;;;3.10;;
10293;SDS011;5192;50.328;7.610;2023-04-25T12:22:18;5.87;;;3.10;;
10293;SDS011;5192;50.328;7.610;2023-04-25T12:24:48;4.63;;;2.73;;
10293;SDS011;5192;50.328;7.610;2023-04-25T12:27:15;5.73;;;2.63;;
10293;SDS011;5192;50.328;7.610;2023-04-25T12:29:54;5.27;;;2.90;;
10293;SDS011;5192;50.328;7.610;2023-04-25T12:32:21;4.83;;;2.90;;
10293;SDS011;5192;50.328;7.610;2023-04-25T12:34:49;5.97;;;2.87;;
10293;SDS011;5192;50.328;7.610;2023-04-25T12:37:15;6.93;;;2.60;;
10293;SDS011;5192;50.328;7.610;2023-04-25T12:39:43;7.80;;;2.70;;
10293;SDS011;5192;50.328;7.610;2023-04-25T12:42:11;6.03;;;2.60;;
10293;SDS011;5192;50.328;7.610;2023-04-25T12:44:38;5.23;;;2.83;;
10293;SDS011;5192;50.328;7.610;2023-04-25T12:47:07;6.77;;;3.00;;
10293;SDS011;5192;50.328;7.610;2023-04-25T12:49:33;5.70;;;2.57;;
10293;SDS011;5192;50.328;7.610;2023-04-25T12:52:00;6.57;;;2.93;;
10293;SDS011;5192;50.328;7.610;2023-04-25T12:54:26;7.53;;;2.70;;
10293;SDS011;5192;50.328;7.610;2023-04-25T12:56:54;5.87;;;3.00;;
10293;SDS011;5192;50.328;7.610;2023-04-25T12:59:21;5.97;;;2.70;;
10293;SDS011;5192;50.328;7.610;2023-04-25T13:01:47;7.97;;;3.20;;
10293;SDS011;5192;50.328;7.610;2023-04-25T13:04:14;6.03;;;2.70;;
10293;SDS011;5192;50.328;7.610;2023-04-25T13:06:41;6.93;;;2.70;;
10293;SDS011;5192;50.328;7.610;2023-04-25T13:09:08;4.53;;;2.63;;
10293;SDS011;5192;50.328;7.610;2023-04-25T13:11:35;8.20;;;3.03;;
10293;SDS011;5192;50.328;7.610;2023-04-25T13:14:02;7.47;;;2.73;;
10293;SDS011;5192;50.328;7.610;2023-04-25T13:16:30;7.97;;;3.07;;
10293;SDS011;5192;50.328;7.610;2023-04-25T13:18:58;6.90;;;3.40;;
10293;SDS011;5192;50.328;7.610;2023-04-25T13:21:25;8.97;;;2.87;;
10293;SDS011;5192;50.328;7.610;2023-04-25T13:23:53;6.43;;;3.00;;
10293;SDS011;5192;50.328;7.610;2023-04-25T13:26:20;4.43;;;2.73;;
10293;SDS011;5192;50.328;7.610;2023-04-25T13:28:45;7.03;;;3.00;;
10293;SDS011;5192;50.328;7.610;2023-04-25T13:31:12;5.10;;;2.77;;
10293;SDS011;5192;50.328;7.610;2023-04-25T13:33:40;8.83;;;2.87;;
10293;SDS011;5192;50.328;7.610;2023-04-25T13:36:05;6.23;;;2.43;;
10293;SDS011;5192;50.328;7.610;2023-04-25T13:38:33;6.10;;;2.50;;
10293;SDS011;5192;50.328;7.610;2023-04-25T13:41:00;6.03;;;2.53;;
10293;SDS011;5192;50.328;7.610;2023-04-25T13:43:28;7.30;;;2.77;;
10293;SDS011;5192;50.328;7.610;2023-04-25T13:45:55;6.07;;;2.57;;
10293;SDS011;5192;50.328;7.610;2023-04-25T13:48:21;6.00;;;2.77;;
10293;SDS011;5192;50.328;7.610;2023-04-25T13:50:49;5.90;;;2.40;;
10293;SDS011;5192;50.328;7.610;2023-04-25T13:53:15;5.00;;;2.60;;
10293;SDS011;5192;50.328;7.610;2023-04-25T13:55:44;6.33;;;2.83;;
10293;SDS011;5192;50.328;7.610;2023-04-25T13:58:10;6.27;;;2.90;;
10293;SDS011;5192;50.328;7.610;2023-04-25T14:00:38;5.37;;;2.70;;
10293;SDS011;5192;50.328;7.610;2023-04-25T14:03:09;7.43;;;3.03;;
10293;SDS011;5192;50.328;7.610;2023-04-25T14:05:36;9.53;;;3.07;;
10293;SDS011;5192;50.328;7.610;2023-04-25T14:08:08;7.90;;;2.83;;
10293;SDS011;5192;50.328;7.610;2023-04-25T14:10:35;6.03;;;2.90;;
10293;SDS011;5192;50.328;7.610;2023-04-25T14:13:02;3.73;;;2.30;;
10293;SDS011;5192;50.328;7.610;2023-04-25T14:15:30;8.37;;;3.23;;
10293;SDS011;5192;50.328;7.610;2023-04-25T14:18:00;8.30;;;2.90;;
10293;SDS011;5192;50.328;7.610;2023-04-25T14:20:26;5.93;;;3.10;;
10293;SDS011;5192;50.328;7.610;2023-04-25T14:22:53;8.43;;;3.07;;
10293;SDS011;5192;50.328;7.610;2023-04-25T14:25:22;7.00;;;2.53;;
10293;SDS011;5192;50.328;7.610;2023-04-25T14:27:49;7.03;;;2.83;;
10293;SDS011;5192;50.328;7.610;2023-04-25T14:30:16;6.97;;;3.33;;
10293;SDS011;5192;50.328;7.610;2023-04-25T14:32:50;6.17;;;2.70;;
10293;SDS011;5192;50.328;7.610;2023-04-25T14:35:18;6.93;;;2.60;;
10293;SDS011;5192;50.328;7.610;2023-04-25T14:37:47;8.80;;;3.10;;
10293;SDS011;5192;50.328;7.610;2023-04-25T14:40:13;5.67;;;2.53;;
10293;SDS011;5192;50.328;7.610;2023-04-25T14:42:41;5.63;;;2.50;;
10293;SDS011;5192;50.328;7.610;2023-04-25T14:45:09;3.83;;;2.10;;
10293;SDS011;5192;50.328;7.610;2023-04-25T14:47:38;6.30;;;3.30;;
10293;SDS011;5192;50.328;7.610;2023-04-25T14:50:07;6.33;;;2.50;;
10293;SDS011;5192;50.328;7.610;2023-04-25T14:52:34;6.00;;;2.70;;
10293;SDS011;5192;50.328;7.610;2023-04-25T14:55:03;4.80;;;2.30;;
10293;SDS011;5192;50.328;7.610;2023-04-25T14:57:33;7.63;;;2.67;;
10293;SDS011;5192;50.328;7.610;2023-04-25T15:00:01;6.87;;;2.87;;
10293;SDS011;5192;50.328;7.610;2023-04-25T15:02:33;8.03;;;2.87;;
10293;SDS011;5192;50.328;7.610;2023-04-25T15:05:02;6.90;;;2.67;;
10293;SDS011;5192;50.328;7.610;2023-04-25T15:07:29;4.80;;;2.70;;
10293;SDS011;5192;50.328;7.610;2023-04-25T15:09:56;6.57;;;2.90;;
10293;SDS011;5192;50.328;7.610;2023-04-25T15:12:22;6.87;;;2.97;;